createdAt,value
2018-06-20T00:00:20.602Z,17.99
2018-06-20T00:02:49.771Z,17.98
2018-06-20T00:05:18.919Z,17.93
2018-06-20T00:07:48.072Z,17.99
2018-06-20T00:10:17.007Z,17.86
2018-06-20T00:12:46.167Z,17.88
2018-06-20T00:15:15.316Z,17.78
2018-06-20T00:17:44.479Z,17.80
2018-06-20T00:20:13.634Z,17.81
2018-06-20T00:22:42.786Z,17.76
2018-06-20T00:25:11.951Z,17.74
2018-06-20T00:27:41.123Z,17.72
2018-06-20T00:30:10.278Z,17.74
2018-06-20T00:32:39.438Z,17.72
2018-06-20T00:35:08.592Z,17.63
2018-06-20T00:37:37.763Z,17.69
2018-06-20T00:40:06.912Z,17.67
2018-06-20T00:42:36.095Z,17.65
2018-06-20T00:45:05.265Z,17.65
2018-06-20T00:47:34.416Z,17.62
2018-06-20T00:50:03.587Z,17.60
2018-06-20T00:52:32.755Z,17.58
2018-06-20T00:55:01.911Z,17.61
2018-06-20T00:57:31.055Z,17.62
2018-06-20T01:00:00.221Z,17.63
2018-06-20T01:02:29.379Z,17.63
2018-06-20T01:04:58.546Z,17.65
2018-06-20T01:07:27.698Z,17.61
2018-06-20T01:09:56.856Z,17.62
2018-06-20T01:12:26.002Z,17.61
2018-06-20T01:14:55.161Z,17.60
2018-06-20T01:17:24.316Z,17.49
2018-06-20T01:19:53.475Z,17.50
2018-06-20T01:22:22.633Z,17.48
2018-06-20T01:24:51.884Z,17.38
2018-06-20T01:27:21.029Z,17.43
2018-06-20T01:29:50.188Z,17.36
2018-06-20T01:32:19.351Z,17.34
2018-06-20T01:34:48.283Z,17.41
2018-06-20T01:37:17.439Z,17.37
2018-06-20T01:39:46.371Z,17.33
2018-06-20T01:42:15.528Z,17.30
2018-06-20T01:44:44.680Z,17.31
2018-06-20T01:47:13.843Z,17.42
2018-06-20T01:49:42.991Z,17.32
2018-06-20T01:52:12.151Z,17.34
2018-06-20T01:54:41.314Z,17.35
2018-06-20T01:57:10.226Z,17.41
2018-06-20T01:59:39.391Z,17.34
2018-06-20T02:02:08.550Z,17.28
2018-06-20T02:04:37.697Z,17.33
2018-06-20T02:07:07.101Z,17.34
2018-06-20T02:09:36.243Z,17.38
2018-06-20T02:12:05.408Z,17.34
2018-06-20T02:14:34.560Z,17.36
2018-06-20T02:17:03.718Z,17.34
2018-06-20T02:19:32.872Z,17.36
2018-06-20T02:22:02.046Z,17.34
2018-06-20T02:24:31.196Z,17.31
2018-06-20T02:27:00.361Z,17.23
2018-06-20T02:29:29.512Z,17.19
2018-06-20T02:31:58.683Z,17.30
2018-06-20T02:34:27.835Z,17.21
2018-06-20T02:36:56.995Z,17.22
2018-06-20T02:39:26.314Z,17.06
2018-06-20T02:41:55.476Z,17.06
2018-06-20T02:44:24.640Z,16.99
2018-06-20T02:46:54.343Z,16.99
2018-06-20T02:49:23.491Z,17.02
2018-06-20T02:51:52.663Z,17.01
2018-06-20T02:54:21.815Z,16.94
2018-06-20T02:56:50.992Z,16.93
2018-06-20T02:59:20.148Z,16.88
2018-06-20T03:01:49.104Z,16.88
2018-06-20T03:04:18.255Z,16.85
2018-06-20T03:06:47.547Z,16.76
2018-06-20T03:09:20.711Z,16.69
2018-06-20T03:11:50.039Z,16.70
2018-06-20T03:14:19.515Z,16.63
2018-06-20T03:16:48.445Z,16.63
2018-06-20T03:19:17.598Z,16.64
2018-06-20T03:21:46.772Z,16.59
2018-06-20T03:24:15.931Z,16.51
2018-06-20T03:26:45.083Z,16.33
2018-06-20T03:29:14.258Z,16.26
2018-06-20T03:31:43.408Z,16.23
2018-06-20T03:34:12.580Z,16.23
2018-06-20T03:36:41.736Z,16.27
2018-06-20T03:39:11.295Z,16.43
2018-06-20T03:41:40.587Z,16.49
2018-06-20T03:44:09.756Z,16.57
2018-06-20T03:46:38.920Z,16.52
2018-06-20T03:49:08.076Z,16.55
2018-06-20T03:51:37.239Z,16.51
2018-06-20T03:54:06.396Z,16.40
2018-06-20T03:56:35.568Z,16.36
2018-06-20T03:59:04.888Z,16.23
2018-06-20T04:01:34.051Z,16.16
2018-06-20T04:04:03.210Z,16.20
2018-06-20T04:06:32.356Z,16.21
2018-06-20T04:09:01.523Z,16.25
2018-06-20T04:11:30.688Z,16.24
2018-06-20T04:13:59.844Z,16.26
2018-06-20T04:16:28.994Z,16.36
2018-06-20T04:18:58.150Z,16.42
2018-06-20T04:21:27.309Z,16.46
2018-06-20T04:23:56.488Z,16.44
2018-06-20T04:26:25.639Z,16.61
2018-06-20T04:28:54.562Z,16.62
2018-06-20T04:31:23.725Z,16.56
2018-06-20T04:33:52.659Z,16.61
2018-06-20T04:36:21.828Z,16.68
2018-06-20T04:38:50.992Z,16.74
2018-06-20T04:41:20.156Z,16.75
2018-06-20T04:43:49.309Z,16.87
2018-06-20T04:46:18.484Z,16.90
2018-06-20T04:48:47.782Z,16.98
2018-06-20T04:51:16.931Z,16.99
2018-06-20T04:53:46.096Z,17.03
2018-06-20T04:56:15.246Z,16.98
2018-06-20T04:58:44.416Z,17.02
2018-06-20T05:01:13.578Z,16.94
2018-06-20T05:03:42.531Z,16.90
2018-06-20T05:06:11.683Z,17.01
2018-06-20T05:08:40.840Z,17.08
2018-06-20T05:11:09.991Z,17.06
2018-06-20T05:13:39.138Z,17.12
2018-06-20T05:16:08.080Z,17.19
2018-06-20T05:18:37.244Z,17.34
2018-06-20T05:21:06.186Z,17.51
2018-06-20T05:23:35.341Z,17.54
2018-06-20T05:26:04.266Z,17.49
2018-06-20T05:28:33.439Z,17.50
2018-06-20T05:31:02.599Z,17.49
2018-06-20T05:33:31.766Z,17.72
2018-06-20T05:36:00.926Z,17.83
2018-06-20T05:38:30.102Z,17.94
2018-06-20T05:40:59.042Z,17.94
2018-06-20T05:43:28.209Z,18.12
2018-06-20T05:45:57.143Z,18.16
2018-06-20T05:48:26.295Z,18.21
2018-06-20T05:50:55.219Z,18.31
2018-06-20T05:53:24.383Z,18.32
2018-06-20T05:56:04.582Z,18.41
2018-06-20T05:58:40.435Z,18.43
2018-06-20T06:01:10.824Z,18.58
2018-06-20T06:03:41.257Z,18.52
2018-06-20T06:06:15.808Z,18.55
2018-06-20T06:08:46.145Z,18.60
2018-06-20T06:11:15.786Z,18.67
2018-06-20T06:13:45.111Z,18.49
2018-06-20T06:16:14.781Z,18.83
2018-06-20T06:18:44.670Z,18.80
2018-06-20T06:21:16.303Z,18.91
2018-06-20T06:23:46.037Z,18.96
2018-06-20T06:26:16.370Z,19.10
2018-06-20T06:28:46.269Z,19.08
2018-06-20T06:31:17.195Z,19.14
2018-06-20T06:33:48.841Z,19.31
2018-06-20T06:36:19.776Z,19.49
2018-06-20T06:38:49.453Z,19.66
2018-06-20T06:41:18.653Z,19.51
2018-06-20T06:43:47.829Z,19.71
2018-06-20T06:46:17.298Z,19.61
2018-06-20T06:48:46.986Z,19.55
2018-06-20T06:51:16.640Z,19.77
2018-06-20T06:53:46.389Z,19.65
2018-06-20T06:56:16.320Z,19.79
2018-06-20T06:58:46.203Z,20.06
2018-06-20T07:01:15.646Z,20.09
2018-06-20T07:03:45.289Z,20.08
2018-06-20T07:06:15.082Z,20.40
2018-06-20T07:08:44.819Z,20.54
2018-06-20T07:11:14.453Z,20.53
2018-06-20T07:13:44.153Z,20.60
2018-06-20T07:16:13.756Z,20.77
2018-06-20T07:18:43.332Z,20.71
2018-06-20T07:21:12.970Z,20.88
2018-06-20T07:23:42.511Z,21.09
2018-06-20T07:26:12.797Z,21.22
2018-06-20T07:28:42.408Z,21.15
2018-06-20T07:31:12.005Z,21.08
2018-06-20T07:33:41.701Z,21.41
2018-06-20T07:36:11.493Z,21.48
2018-06-20T07:38:40.682Z,21.77
2018-06-20T07:41:10.178Z,21.86
2018-06-20T07:43:39.513Z,22.15
2018-06-20T07:46:09.099Z,22.41
2018-06-20T07:48:38.739Z,22.27
2018-06-20T07:51:08.298Z,22.20
2018-06-20T07:53:37.942Z,22.49
2018-06-20T07:56:07.528Z,22.46
2018-06-20T07:58:42.183Z,22.66
2018-06-20T08:01:22.483Z,22.38
2018-06-20T08:03:57.295Z,22.72
2018-06-20T08:06:32.124Z,22.71
2018-06-20T08:10:08.665Z,22.70
2018-06-20T08:12:43.510Z,22.89
2018-06-20T08:15:18.381Z,23.41
2018-06-20T08:17:53.088Z,23.46
2018-06-20T08:20:24.764Z,23.43
2018-06-20T08:22:55.053Z,23.51
2018-06-20T08:25:24.768Z,23.56
2018-06-20T08:27:54.416Z,23.78
2018-06-20T08:30:23.949Z,23.77
2018-06-20T08:32:53.688Z,23.96
2018-06-20T08:35:22.985Z,23.96
2018-06-20T08:37:52.666Z,23.95
2018-06-20T08:40:22.171Z,23.79
2018-06-20T08:42:51.669Z,24.05
2018-06-20T08:45:21.111Z,24.12
2018-06-20T08:47:50.601Z,24.39
2018-06-20T08:50:19.968Z,24.32
2018-06-20T08:52:49.481Z,24.72
2018-06-20T08:55:19.134Z,24.33
2018-06-20T08:57:48.558Z,24.56
2018-06-20T09:00:23.270Z,24.74
2018-06-20T09:02:52.819Z,24.88
2018-06-20T09:05:27.554Z,24.99
2018-06-20T09:08:02.195Z,25.80
2018-06-20T09:10:37.058Z,26.00
2018-06-20T09:13:11.896Z,25.75
2018-06-20T09:15:46.761Z,25.14
2018-06-20T09:18:21.365Z,25.35
2018-06-20T09:20:50.829Z,24.21
2018-06-20T09:23:20.449Z,24.93
2018-06-20T09:25:49.658Z,25.67
2018-06-20T09:28:18.916Z,25.43
2018-06-20T09:30:48.390Z,25.05
2018-06-20T09:33:17.838Z,25.40
2018-06-20T09:35:47.240Z,25.69
2018-06-20T09:38:16.775Z,25.62
2018-06-20T09:40:46.375Z,24.97
2018-06-20T09:43:15.795Z,24.51
2018-06-20T09:45:45.233Z,25.56
2018-06-20T09:48:14.699Z,25.75
2018-06-20T09:50:49.571Z,26.30
2018-06-20T09:53:19.099Z,25.88
2018-06-20T09:55:48.648Z,24.93
2018-06-20T09:58:19.132Z,25.72
2018-06-20T10:00:53.901Z,26.06
2018-06-20T10:03:28.732Z,25.59
2018-06-20T10:06:03.565Z,26.36
2018-06-20T10:08:38.385Z,26.54
2018-06-20T10:11:14.455Z,25.00
2018-06-20T10:13:47.425Z,25.15
2018-06-20T10:16:17.238Z,25.81
2018-06-20T10:18:46.442Z,24.94
2018-06-20T10:21:16.019Z,25.48
2018-06-20T10:23:45.529Z,26.14
2018-06-20T10:26:14.777Z,26.34
2018-06-20T10:28:44.266Z,26.87
2018-06-20T10:31:13.824Z,27.79
2018-06-20T10:33:43.389Z,27.46
2018-06-20T10:36:13.115Z,26.21
2018-06-20T10:38:42.657Z,26.50
2018-06-20T10:41:12.160Z,26.89
2018-06-20T10:43:41.567Z,27.30
2018-06-20T10:47:16.201Z,27.60
2018-06-20T10:49:45.649Z,28.25
2018-06-20T10:52:15.201Z,27.58
2018-06-20T10:54:44.843Z,28.00
2018-06-20T10:57:19.625Z,27.40
2018-06-20T11:00:02.093Z,27.65
2018-06-20T11:02:37.070Z,26.20
2018-06-20T11:05:12.032Z,27.00
2018-06-20T11:07:47.692Z,27.73
2018-06-20T11:10:23.511Z,29.17
2018-06-20T11:13:11.749Z,28.45
2018-06-20T11:15:41.507Z,29.16
2018-06-20T11:18:11.079Z,29.26
2018-06-20T11:20:45.922Z,28.35
2018-06-20T11:23:15.659Z,29.50
2018-06-20T11:25:45.161Z,30.00
2018-06-20T11:28:15.820Z,27.18
2018-06-20T11:30:46.524Z,28.53
2018-06-20T11:33:16.583Z,28.65
2018-06-20T11:35:46.261Z,29.24
2018-06-20T11:38:15.911Z,29.15
2018-06-20T11:40:45.480Z,28.55
2018-06-20T11:43:15.001Z,29.56
2018-06-20T11:45:49.795Z,30.17
2018-06-20T11:48:19.185Z,31.49
2018-06-20T11:50:48.689Z,30.12
2018-06-20T11:53:18.238Z,31.42
2018-06-20T11:55:48.356Z,29.06
2018-06-20T11:58:23.359Z,30.82
2018-06-20T12:00:58.187Z,29.86
2018-06-20T12:03:33.107Z,29.55
2018-06-20T12:06:07.899Z,30.32
2018-06-20T12:08:42.846Z,30.52
2018-06-20T12:12:15.058Z,30.86
2018-06-20T12:14:49.758Z,31.15
2018-06-20T12:17:24.318Z,29.74
2018-06-20T12:19:59.165Z,30.01
2018-06-20T12:22:33.964Z,30.45
2018-06-20T12:25:08.620Z,30.46
2018-06-20T12:27:43.456Z,29.21
2018-06-20T12:30:18.163Z,29.81
2018-06-20T12:32:52.837Z,30.89
2018-06-20T12:35:27.560Z,29.55
2018-06-20T12:38:02.424Z,30.69
2018-06-20T12:40:37.156Z,32.50
2018-06-20T12:43:11.905Z,30.35
2018-06-20T12:45:41.643Z,28.15
2018-06-20T12:48:10.987Z,28.56
2018-06-20T12:50:40.341Z,31.34
2018-06-20T12:53:09.838Z,31.31
2018-06-20T12:55:39.134Z,31.59
2018-06-20T12:58:08.771Z,31.66
2018-06-20T13:00:38.346Z,31.95
2018-06-20T13:03:07.975Z,32.17
2018-06-20T13:05:37.661Z,32.49
2018-06-20T13:08:07.309Z,33.18
2018-06-20T13:10:36.904Z,32.67
2018-06-20T13:13:06.271Z,31.85
2018-06-20T13:15:35.714Z,32.62
2018-06-20T13:18:05.015Z,32.28
2018-06-20T13:20:34.387Z,31.93
2018-06-20T13:23:03.840Z,31.69
2018-06-20T13:25:34.393Z,32.00
2018-06-20T13:28:03.807Z,30.77
2018-06-20T13:30:33.203Z,29.11
2018-06-20T13:33:07.926Z,29.76
2018-06-20T13:35:42.535Z,32.04
2018-06-20T13:38:17.105Z,31.26
2018-06-20T13:40:51.834Z,31.69
2018-06-20T13:43:26.227Z,31.51
2018-06-20T13:46:00.790Z,30.05
2018-06-20T13:48:32.717Z,29.71
2018-06-20T13:51:02.137Z,29.14
2018-06-20T13:53:31.581Z,29.01
2018-06-20T13:56:01.336Z,31.07
2018-06-20T13:58:30.795Z,32.40
2018-06-20T14:01:00.204Z,31.79
2018-06-20T14:03:29.328Z,31.73
2018-06-20T14:05:59.982Z,32.85
2018-06-20T14:08:29.556Z,33.91
2018-06-20T14:10:59.243Z,33.04
2018-06-20T14:13:28.498Z,32.73
2018-06-20T14:15:57.904Z,33.08
2018-06-20T14:18:27.338Z,33.69
2018-06-20T14:21:01.885Z,32.42
2018-06-20T14:23:31.212Z,32.56
2018-06-20T14:26:00.670Z,33.04
2018-06-20T14:28:30.197Z,32.96
2018-06-20T14:31:04.883Z,32.46
2018-06-20T14:34:40.056Z,31.88
2018-06-20T14:37:14.688Z,32.79
2018-06-20T14:39:49.127Z,34.04
2018-06-20T14:42:23.623Z,32.85
2018-06-20T14:44:56.827Z,32.02
2018-06-20T14:47:26.096Z,32.70
2018-06-20T14:49:55.345Z,32.76
2018-06-20T14:52:24.681Z,31.95
2018-06-20T14:54:53.965Z,32.79
2018-06-20T14:57:23.272Z,33.25
2018-06-20T14:59:52.545Z,33.27
2018-06-20T15:02:21.894Z,33.86
2018-06-20T15:04:51.198Z,32.42
2018-06-20T15:07:20.579Z,32.17
2018-06-20T15:09:49.880Z,33.58
2018-06-20T15:12:19.149Z,34.37
2018-06-20T15:14:48.400Z,33.77
2018-06-20T15:17:29.245Z,34.25
2018-06-20T15:19:58.627Z,34.89
2018-06-20T15:22:31.953Z,32.73
2018-06-20T15:25:01.162Z,34.26
2018-06-20T15:27:35.808Z,32.04
2018-06-20T15:30:10.425Z,33.38
2018-06-20T15:32:44.966Z,33.15
2018-06-20T15:35:19.394Z,33.38
2018-06-20T15:37:54.092Z,34.54
2018-06-20T15:40:23.092Z,34.50
2018-06-20T15:42:52.304Z,34.41
2018-06-20T15:45:21.629Z,31.90
2018-06-20T15:47:50.919Z,32.86
2018-06-20T15:50:20.136Z,33.99
2018-06-20T15:52:49.378Z,33.33
2018-06-20T15:55:18.379Z,34.30
2018-06-20T15:57:47.683Z,34.74
2018-06-20T16:00:16.709Z,33.30
2018-06-20T16:02:45.978Z,34.47
2018-06-20T16:05:15.321Z,34.57
2018-06-20T16:07:44.697Z,33.35
2018-06-20T16:10:18.142Z,33.88
2018-06-20T16:12:47.571Z,33.67
2018-06-20T16:15:17.621Z,34.10
2018-06-20T16:17:46.831Z,32.90
2018-06-20T16:20:21.317Z,34.63
2018-06-20T16:22:55.693Z,32.79
2018-06-20T16:25:29.991Z,32.25
2018-06-20T16:28:04.532Z,32.57
2018-06-20T16:30:36.459Z,31.92
2018-06-20T16:33:06.005Z,33.97
2018-06-20T16:35:35.652Z,33.49
2018-06-20T16:38:04.965Z,32.05
2018-06-20T16:40:33.946Z,33.91
2018-06-20T16:43:03.145Z,33.99
2018-06-20T16:45:32.091Z,32.95
2018-06-20T16:48:01.282Z,31.37
2018-06-20T16:50:30.487Z,32.39
2018-06-20T16:52:59.749Z,32.25
2018-06-20T16:55:29.876Z,34.01
2018-06-20T16:57:59.063Z,32.76
2018-06-20T17:00:28.298Z,32.80
2018-06-20T17:02:57.461Z,33.84
2018-06-20T17:05:26.721Z,34.70
2018-06-20T17:07:55.715Z,34.23
2018-06-20T17:10:24.962Z,35.13
2018-06-20T17:12:59.355Z,33.87
2018-06-20T17:15:33.712Z,33.25
2018-06-20T17:18:08.219Z,32.55
2018-06-20T17:20:42.911Z,33.22
2018-06-20T17:23:17.373Z,32.59
2018-06-20T17:25:46.799Z,33.31
2018-06-20T17:28:16.051Z,32.41
2018-06-20T17:30:45.380Z,32.14
2018-06-20T17:33:14.650Z,32.27
2018-06-20T17:35:44.026Z,31.98
2018-06-20T17:38:13.324Z,32.14
2018-06-20T17:40:42.401Z,32.49
2018-06-20T17:43:12.099Z,33.26
2018-06-20T17:45:41.727Z,32.79
2018-06-20T17:48:10.738Z,32.80
2018-06-20T17:50:39.993Z,33.99
2018-06-20T17:53:09.132Z,33.03
2018-06-20T17:55:38.075Z,31.78
2018-06-20T17:58:07.256Z,32.01
2018-06-20T18:00:41.780Z,32.25
2018-06-20T18:03:13.361Z,32.09
2018-06-20T18:05:47.805Z,33.43
2018-06-20T18:08:22.279Z,32.96
2018-06-20T18:10:56.960Z,31.89
2018-06-20T18:13:34.321Z,30.32
2018-06-20T18:16:09.115Z,29.12
2018-06-20T18:18:38.701Z,28.68
2018-06-20T18:21:08.401Z,28.28
2018-06-20T18:23:43.688Z,28.16
2018-06-20T18:26:44.225Z,28.11
2018-06-20T18:29:25.494Z,27.83
2018-06-20T18:51:29.567Z,26.64
2018-06-20T18:53:59.345Z,26.61
2018-06-20T18:56:29.257Z,26.49
2018-06-20T18:59:04.084Z,26.45
2018-06-20T19:01:39.325Z,26.29
2018-06-20T19:10:04.812Z,26.08
2018-06-20T19:12:34.178Z,26.02
2018-06-20T19:15:03.758Z,25.95
2018-06-20T19:17:33.155Z,25.95
2018-06-20T19:20:02.515Z,25.87
2018-06-20T19:22:31.807Z,25.79
2018-06-20T19:25:01.140Z,25.75
2018-06-20T19:27:30.640Z,25.72
2018-06-20T19:30:00.071Z,25.69
2018-06-20T19:32:29.578Z,25.63
2018-06-20T19:34:58.994Z,25.55
2018-06-20T19:37:28.521Z,25.50
2018-06-20T19:39:58.033Z,25.43
2018-06-20T19:42:27.507Z,25.36
2018-06-20T19:44:57.124Z,25.31
2018-06-20T19:47:26.533Z,25.28
2018-06-20T19:49:56.018Z,25.34
2018-06-20T19:52:25.488Z,25.20
2018-06-20T19:54:54.964Z,25.13
2018-06-20T19:57:24.475Z,25.06
2018-06-20T19:59:54.144Z,24.94
2018-06-20T20:02:23.629Z,25.10
2018-06-20T20:04:53.243Z,24.82
2018-06-20T20:07:22.832Z,24.80
2018-06-20T20:09:52.536Z,24.62
2018-06-20T20:12:22.064Z,24.62
2018-06-20T20:14:51.607Z,24.43
2018-06-20T20:17:21.133Z,24.24
2018-06-20T20:19:50.589Z,24.32
2018-06-20T20:22:20.123Z,24.47
2018-06-20T20:24:49.701Z,24.34
2018-06-20T20:27:19.315Z,24.50
2018-06-20T20:29:48.841Z,24.22
2018-06-20T20:32:18.462Z,24.00
2018-06-20T20:34:47.704Z,23.96
2018-06-20T20:37:16.944Z,24.18
2018-06-20T20:39:46.244Z,24.18
2018-06-20T20:42:15.420Z,24.19
2018-06-20T20:44:44.610Z,24.19
2018-06-20T20:47:13.807Z,23.90
2018-06-20T20:49:43.118Z,23.81
2018-06-20T20:52:11.978Z,23.68
2018-06-20T20:54:41.162Z,24.06
2018-06-20T20:57:10.200Z,24.22
2018-06-20T20:59:39.443Z,24.19
2018-06-20T21:02:08.678Z,23.99
2018-06-20T21:04:37.836Z,23.96
2018-06-20T21:07:06.802Z,23.86
2018-06-20T21:09:35.998Z,23.24
2018-06-20T21:12:05.239Z,23.20
2018-06-20T21:14:34.219Z,23.21
2018-06-20T21:17:03.520Z,23.27
2018-06-20T21:19:32.439Z,23.26
2018-06-20T21:22:01.609Z,23.33
2018-06-20T21:24:30.915Z,23.37
2018-06-20T21:26:59.830Z,23.21
2018-06-20T21:29:28.996Z,23.52
2018-06-20T21:31:58.160Z,23.72
2018-06-20T21:34:27.320Z,23.83
2018-06-20T21:36:56.472Z,23.79
2018-06-20T21:39:25.627Z,23.64
2018-06-20T21:41:54.792Z,23.48
2018-06-20T21:44:23.999Z,23.55
2018-06-20T21:46:53.276Z,23.50
2018-06-20T21:49:22.423Z,23.69
2018-06-20T21:51:51.595Z,23.51
2018-06-20T21:54:20.796Z,22.88
2018-06-20T21:56:51.578Z,22.24
2018-06-20T21:59:21.356Z,22.25
2018-06-20T22:01:51.542Z,21.84
2018-06-20T22:04:20.637Z,21.71
2018-06-20T22:06:50.201Z,21.49
2018-06-20T22:09:20.930Z,21.42
2018-06-20T22:11:50.101Z,21.53
2018-06-20T22:14:19.343Z,21.42
2018-06-20T22:16:48.501Z,21.36
2018-06-20T22:19:17.683Z,21.35
2018-06-20T22:21:46.837Z,21.39
2018-06-20T22:24:15.995Z,21.59
2018-06-20T22:26:45.151Z,21.70
2018-06-20T22:29:14.314Z,21.67
2018-06-20T22:31:43.477Z,21.45
2018-06-20T22:34:12.644Z,21.28
2018-06-20T22:36:41.801Z,21.22
2018-06-20T22:39:11.335Z,21.09
2018-06-20T22:41:40.498Z,20.77
2018-06-20T22:44:09.643Z,20.76
2018-06-20T22:46:38.812Z,20.70
2018-06-20T22:49:08.339Z,20.65
2018-06-20T22:51:37.555Z,20.63
2018-06-20T22:54:07.387Z,20.62
2018-06-20T22:56:36.544Z,20.65
2018-06-20T22:59:05.460Z,20.70
2018-06-20T23:01:34.676Z,20.71
2018-06-20T23:04:03.844Z,20.74
2018-06-20T23:06:33.010Z,20.76
2018-06-20T23:09:02.155Z,20.71
2018-06-20T23:11:35.431Z,20.63
2018-06-20T23:14:04.563Z,20.52
2018-06-20T23:16:33.719Z,20.61
2018-06-20T23:19:02.899Z,20.61
2018-06-20T23:21:32.056Z,20.68
2018-06-20T23:24:01.288Z,20.66
2018-06-20T23:26:30.445Z,20.56
2018-06-20T23:29:00.096Z,20.51
2018-06-20T23:31:29.240Z,20.26
2018-06-20T23:33:58.396Z,20.27
2018-06-20T23:36:27.544Z,20.15
2018-06-20T23:38:56.727Z,20.10
2018-06-20T23:41:25.879Z,20.10
2018-06-20T23:43:55.032Z,20.00
2018-06-20T23:46:24.181Z,19.95
2018-06-20T23:48:53.338Z,19.89
2018-06-20T23:51:22.496Z,19.84
2018-06-20T23:53:51.662Z,19.92
2018-06-20T23:56:20.815Z,19.87
2018-06-20T23:58:49.967Z,19.79
